createdAt,value
2018-08-31T00:00:28.204Z,98105.22
2018-08-31T00:00:59.802Z,98095.47
2018-08-31T00:01:31.448Z,98095.96
2018-08-31T00:02:03.184Z,98095.47
2018-08-31T00:02:34.785Z,98095.89
2018-08-31T00:03:06.390Z,98095.03
2018-08-31T00:03:37.984Z,98097.13
2018-08-31T00:04:09.582Z,98098.41
2018-08-31T00:04:41.176Z,98095.41
2018-08-31T00:05:12.779Z,98096.27
2018-08-31T00:05:44.371Z,98092.48
2018-08-31T00:06:15.970Z,98091.12
2018-08-31T00:06:47.565Z,98092.91
2018-08-31T00:07:19.230Z,98099.67
2018-08-31T00:07:50.816Z,98096.27
2018-08-31T00:08:22.418Z,98094.56
2018-08-31T00:08:54.010Z,98100.95
2018-08-31T00:09:25.631Z,98098.83
2018-08-31T00:09:57.247Z,98099.75
2018-08-31T00:10:28.826Z,98094.61
2018-08-31T00:11:00.427Z,98095.03
2018-08-31T00:11:32.031Z,98101.88
2018-08-31T00:12:03.620Z,98096.33
2018-08-31T00:12:35.252Z,98105.30
2018-08-31T00:13:06.843Z,98097.63
2018-08-31T00:13:38.418Z,98104.47
2018-08-31T00:14:10.007Z,98100.19
2018-08-31T00:14:41.639Z,98101.95
2018-08-31T00:15:13.228Z,98097.24
2018-08-31T00:15:44.830Z,98098.96
2018-08-31T00:16:16.479Z,98095.96
2018-08-31T00:16:48.069Z,98100.24
2018-08-31T00:17:19.659Z,98097.68
2018-08-31T00:17:51.247Z,98103.24
2018-08-31T00:18:22.835Z,98095.13
2018-08-31T00:18:54.424Z,98097.70
2018-08-31T00:19:26.020Z,98097.70
2018-08-31T00:19:57.607Z,98096.41
2018-08-31T00:20:29.246Z,98101.55
2018-08-31T00:21:00.858Z,98098.56
2018-08-31T00:21:32.448Z,98103.25
2018-08-31T00:22:04.035Z,98095.56
2018-08-31T00:22:35.652Z,98097.28
2018-08-31T00:23:07.258Z,98101.97
2018-08-31T00:23:38.858Z,98096.47
2018-08-31T00:24:10.463Z,98097.75
2018-08-31T00:24:42.058Z,98094.77
2018-08-31T00:25:13.660Z,98094.77
2018-08-31T00:25:45.307Z,98105.02
2018-08-31T00:26:16.896Z,98095.19
2018-08-31T00:26:48.474Z,98104.16
2018-08-31T00:27:20.061Z,98100.77
2018-08-31T00:27:51.662Z,98100.33
2018-08-31T00:28:23.252Z,98101.63
2018-08-31T00:28:54.854Z,98102.47
2018-08-31T00:29:26.443Z,98105.44
2018-08-31T00:29:58.041Z,98105.03
2018-08-31T00:30:29.650Z,98102.87
2018-08-31T00:31:01.298Z,98104.97
2018-08-31T00:31:32.902Z,98107.53
2018-08-31T00:32:04.497Z,98110.09
2018-08-31T00:32:36.084Z,98113.94
2018-08-31T00:33:07.689Z,98108.81
2018-08-31T00:33:39.293Z,98110.09
2018-08-31T00:34:10.925Z,98107.09
2018-08-31T00:34:42.520Z,98105.75
2018-08-31T00:35:14.099Z,98107.86
2018-08-31T00:35:45.692Z,98112.08
2018-08-31T00:36:17.314Z,98112.55
2018-08-31T00:36:48.899Z,98109.98
2018-08-31T00:37:20.501Z,98106.95
2018-08-31T00:37:52.077Z,98106.56
2018-08-31T00:38:23.678Z,98102.25
2018-08-31T00:38:55.322Z,98099.27
2018-08-31T00:39:26.926Z,98104.77
2018-08-31T00:39:58.516Z,98100.81
2018-08-31T00:40:30.094Z,98105.92
2018-08-31T00:41:01.698Z,98106.75
2018-08-31T00:41:33.328Z,98100.29
2018-08-31T00:42:04.929Z,98104.55
2018-08-31T00:42:36.516Z,98102.40
2018-08-31T00:43:08.110Z,98100.29
2018-08-31T00:43:39.718Z,98106.66
2018-08-31T00:44:11.322Z,98101.08
2018-08-31T00:44:42.906Z,98103.63
2018-08-31T00:45:14.510Z,98101.50
2018-08-31T00:45:46.199Z,98101.08
2018-08-31T00:46:17.778Z,98098.50
2018-08-31T00:46:49.368Z,98100.19
2018-08-31T00:47:21.010Z,98098.55
2018-08-31T00:47:52.600Z,98110.87
2018-08-31T00:48:24.192Z,98103.63
2018-08-31T00:48:55.834Z,98101.50
2018-08-31T00:49:27.427Z,98100.22
2018-08-31T00:49:59.031Z,98101.50
2018-08-31T00:50:30.623Z,98102.36
2018-08-31T00:51:02.207Z,98096.80
2018-08-31T00:51:33.796Z,98093.02
2018-08-31T00:52:05.382Z,98097.70
2018-08-31T00:52:36.971Z,98098.14
2018-08-31T00:53:08.574Z,98098.98
2018-08-31T00:53:40.183Z,98096.86
2018-08-31T00:54:11.784Z,98098.15
2018-08-31T00:54:43.390Z,98099.85
2018-08-31T00:55:14.980Z,98101.55
2018-08-31T00:55:46.615Z,98090.52
2018-08-31T00:56:18.217Z,98095.57
2018-08-31T00:56:49.826Z,98097.71
2018-08-31T00:57:21.402Z,98102.36
2018-08-31T00:57:53.009Z,98101.48
2018-08-31T00:58:24.601Z,98102.77
2018-08-31T00:58:56.206Z,98098.00
2018-08-31T00:59:27.802Z,98097.56
2018-08-31T00:59:59.406Z,98097.56
2018-08-31T01:00:31.028Z,98097.56
2018-08-31T01:01:02.666Z,98100.56
2018-08-31T01:01:34.256Z,98093.36
2018-08-31T01:02:05.831Z,98092.08
2018-08-31T01:02:37.416Z,98092.16
2018-08-31T01:03:09.018Z,98103.69
2018-08-31T01:03:40.623Z,98103.26
2018-08-31T01:04:12.220Z,98094.74
2018-08-31T01:04:43.823Z,98098.16
2018-08-31T01:05:15.430Z,98092.27
2018-08-31T01:05:47.077Z,98094.39
2018-08-31T01:06:18.654Z,98097.86
2018-08-31T01:06:50.239Z,98095.73
2018-08-31T01:07:21.824Z,98098.30
2018-08-31T01:07:53.406Z,98094.52
2018-08-31T01:08:25.052Z,98095.75
2018-08-31T01:08:56.662Z,98094.05
2018-08-31T01:09:28.256Z,98089.79
2018-08-31T01:09:59.844Z,98088.93
2018-08-31T01:10:31.485Z,98094.52
2018-08-31T01:11:03.082Z,98096.69
2018-08-31T01:11:34.685Z,98096.23
2018-08-31T01:12:06.285Z,98094.53
2018-08-31T01:12:37.879Z,98093.36
2018-08-31T01:13:09.465Z,98091.64
2018-08-31T01:13:41.096Z,98095.89
2018-08-31T01:14:12.670Z,98088.20
2018-08-31T01:14:44.274Z,98094.61
2018-08-31T01:15:15.869Z,98094.19
2018-08-31T01:15:47.492Z,98094.14
2018-08-31T01:16:19.097Z,98089.92
2018-08-31T01:16:50.683Z,98093.33
2018-08-31T01:17:22.279Z,98092.05
2018-08-31T01:17:53.864Z,98092.48
2018-08-31T01:18:25.518Z,98095.89
2018-08-31T01:18:57.107Z,98097.61
2018-08-31T01:19:28.704Z,98098.05
2018-08-31T01:20:00.306Z,98101.53
2018-08-31T01:20:31.882Z,98092.06
2018-08-31T01:21:03.468Z,98097.63
2018-08-31T01:21:35.046Z,98099.75
2018-08-31T01:22:06.650Z,98097.61
2018-08-31T01:22:38.258Z,98107.88
2018-08-31T01:23:09.848Z,98098.91
2018-08-31T01:23:41.487Z,98096.34
2018-08-31T01:24:13.078Z,98108.73
2018-08-31T01:24:44.678Z,98104.47
2018-08-31T01:25:16.283Z,98103.19
2018-08-31T01:25:47.876Z,98106.23
2018-08-31T01:26:19.479Z,98110.05
2018-08-31T01:26:51.073Z,98103.61
2018-08-31T01:27:22.674Z,98106.16
2018-08-31T01:27:54.277Z,98110.02
2018-08-31T01:28:25.882Z,98113.00
2018-08-31T01:28:57.482Z,98104.47
2018-08-31T01:29:29.091Z,98110.05
2018-08-31T01:30:00.690Z,98114.29
2018-08-31T01:30:32.280Z,98106.22
2018-08-31T01:31:03.881Z,98117.75
2018-08-31T01:31:35.468Z,98113.48
2018-08-31T01:32:07.070Z,98110.05
2018-08-31T01:32:38.660Z,98111.34
2018-08-31T01:33:10.252Z,98115.20
2018-08-31T01:33:41.899Z,98111.35
2018-08-31T01:34:13.503Z,98108.81
2018-08-31T01:34:45.106Z,98115.98
2018-08-31T01:35:16.706Z,98117.67
2018-08-31T01:35:48.300Z,98113.42
2018-08-31T01:36:19.911Z,98108.66
2018-08-31T01:36:51.504Z,98110.78
2018-08-31T01:37:23.106Z,98115.45
2018-08-31T01:37:54.715Z,98111.20
2018-08-31T01:38:26.308Z,98117.16
2018-08-31T01:38:57.900Z,98108.20
2018-08-31T01:39:29.479Z,98118.88
2018-08-31T01:40:01.082Z,98113.76
2018-08-31T01:40:32.707Z,98109.91
2018-08-31T01:41:04.285Z,98120.15
2018-08-31T01:41:35.885Z,98115.91
2018-08-31T01:42:07.478Z,98114.64
2018-08-31T01:42:39.088Z,98114.27
2018-08-31T01:43:10.676Z,98114.28
2018-08-31T01:43:42.267Z,98115.56
2018-08-31T01:44:13.861Z,98116.47
2018-08-31T01:44:45.458Z,98119.03
2018-08-31T01:45:17.089Z,98116.04
2018-08-31T01:45:48.680Z,98118.61
2018-08-31T01:46:20.303Z,98113.14
2018-08-31T01:46:51.906Z,98117.34
2018-08-31T01:47:23.500Z,98125.94
2018-08-31T01:47:55.079Z,98115.64
2018-08-31T01:48:26.664Z,98105.69
2018-08-31T01:48:58.267Z,98117.43
2018-08-31T01:49:29.855Z,98124.25
2018-08-31T01:50:01.431Z,98124.25
2018-08-31T01:50:33.006Z,98129.38
2018-08-31T01:51:04.611Z,98116.58
2018-08-31T01:51:36.201Z,98121.71
2018-08-31T01:52:07.792Z,98123.04
2018-08-31T01:52:39.478Z,98122.18
2018-08-31T01:53:11.044Z,98124.32
2018-08-31T01:53:42.646Z,98123.05
2018-08-31T01:54:14.240Z,98123.47
2018-08-31T01:54:45.828Z,98125.61
2018-08-31T01:55:17.437Z,98132.02
2018-08-31T01:55:49.047Z,98128.17
2018-08-31T01:56:20.654Z,98128.17
2018-08-31T01:56:52.244Z,98127.75
2018-08-31T01:57:23.846Z,98126.47
2018-08-31T01:57:55.436Z,98129.47
2018-08-31T01:58:27.034Z,98126.48
2018-08-31T01:58:58.621Z,98125.25
2018-08-31T01:59:30.222Z,98124.39
2018-08-31T02:00:01.816Z,98121.83
2018-08-31T02:00:33.417Z,98122.28
2018-08-31T02:01:05.061Z,98126.09
2018-08-31T02:01:36.652Z,98117.13
2018-08-31T02:02:08.253Z,98117.94
2018-08-31T02:02:39.838Z,98120.47
2018-08-31T02:03:11.438Z,98114.91
2018-08-31T02:03:43.028Z,98121.28
2018-08-31T02:04:14.665Z,98117.87
2018-08-31T02:04:46.220Z,98118.25
2018-08-31T02:05:17.822Z,98118.64
2018-08-31T02:05:49.412Z,98116.08
2018-08-31T02:06:21.044Z,98122.48
2018-08-31T02:06:52.646Z,98120.83
2018-08-31T02:07:24.250Z,98117.36
2018-08-31T02:07:55.839Z,98119.84
2018-08-31T02:08:27.442Z,98116.77
2018-08-31T02:08:59.033Z,98119.30
2018-08-31T02:09:30.623Z,98120.53
2018-08-31T02:10:02.232Z,98121.78
2018-08-31T02:10:33.864Z,98114.89
2018-08-31T02:11:05.452Z,98117.43
2018-08-31T02:11:37.044Z,98114.88
2018-08-31T02:12:08.658Z,98125.13
2018-08-31T02:12:40.252Z,98125.55
2018-08-31T02:13:11.837Z,98122.58
2018-08-31T02:13:43.486Z,98122.56
2018-08-31T02:14:15.090Z,98116.53
2018-08-31T02:14:46.720Z,98126.44
2018-08-31T02:15:18.313Z,98116.95
2018-08-31T02:15:49.894Z,98117.86
2018-08-31T02:16:21.491Z,98121.78
2018-08-31T02:16:53.102Z,98122.64
2018-08-31T02:17:24.702Z,98116.30
2018-08-31T02:17:56.296Z,98118.45
2018-08-31T02:18:27.894Z,98123.61
2018-08-31T02:18:59.538Z,98118.55
2018-08-31T02:19:31.141Z,98121.98
2018-08-31T02:20:02.737Z,98116.55
2018-08-31T02:20:34.329Z,98109.90
2018-08-31T02:21:05.919Z,98119.97
2018-08-31T02:21:37.519Z,98114.45
2018-08-31T02:22:09.122Z,98119.56
2018-08-31T02:22:40.716Z,98122.55
2018-08-31T02:23:12.362Z,98117.48
2018-08-31T02:23:43.957Z,98121.77
2018-08-31T02:24:15.548Z,98120.06
2018-08-31T02:24:47.184Z,98121.78
2018-08-31T02:25:18.767Z,98120.50
2018-08-31T02:25:50.351Z,98117.98
2018-08-31T02:26:21.936Z,98122.71
2018-08-31T02:26:53.550Z,98120.20
2018-08-31T02:27:25.164Z,98122.28
2018-08-31T02:27:56.778Z,98120.48
2018-08-31T02:28:28.370Z,98115.78
2018-08-31T02:28:59.960Z,98119.11
2018-08-31T02:29:31.560Z,98113.50
2018-08-31T02:30:03.210Z,98116.47
2018-08-31T02:30:34.809Z,98113.91
2018-08-31T02:31:06.400Z,98111.35
2018-08-31T02:31:37.974Z,98118.14
2018-08-31T02:32:09.550Z,98109.16
2018-08-31T02:32:41.149Z,98110.87
2018-08-31T02:33:12.749Z,98109.63
2018-08-31T02:33:44.326Z,98110.92
2018-08-31T02:34:15.911Z,98105.39
2018-08-31T02:34:47.496Z,98107.95
2018-08-31T02:35:19.136Z,98110.94
2018-08-31T02:35:50.738Z,98114.35
2018-08-31T02:36:22.336Z,98112.66
2018-08-31T02:36:53.942Z,98107.53
2018-08-31T02:37:25.528Z,98109.67
2018-08-31T02:37:57.106Z,98116.92
2018-08-31T02:38:28.711Z,98110.56
2018-08-31T02:39:00.290Z,98112.23
2018-08-31T02:39:31.879Z,98108.89
2018-08-31T02:40:03.480Z,98111.03
2018-08-31T02:40:35.134Z,98118.14
2018-08-31T02:41:06.738Z,98114.91
2018-08-31T02:41:38.332Z,98114.14
2018-08-31T02:42:09.924Z,98116.61
2018-08-31T02:42:41.512Z,98114.92
2018-08-31T02:43:13.104Z,98116.29
2018-08-31T02:43:44.682Z,98117.69
2018-08-31T02:44:16.282Z,98116.94
2018-08-31T02:44:47.884Z,98116.61
2018-08-31T02:45:19.480Z,98118.02
2018-08-31T02:45:51.142Z,98118.97
2018-08-31T02:46:22.868Z,98113.49
2018-08-31T02:46:54.510Z,98119.97
2018-08-31T02:47:26.100Z,98123.88
2018-08-31T02:47:57.693Z,98117.48
2018-08-31T02:48:29.289Z,98117.84
2018-08-31T02:49:01.224Z,98119.04
2018-08-31T02:49:32.824Z,98121.88
2018-08-31T02:50:04.412Z,98120.50
2018-08-31T02:50:36.013Z,98125.48
2018-08-31T02:51:07.648Z,98123.25
2018-08-31T02:51:39.239Z,98113.44
2018-08-31T02:52:10.842Z,98125.47
2018-08-31T02:52:42.435Z,98120.52
2018-08-31T02:53:14.020Z,98121.47
2018-08-31T02:53:45.627Z,98122.04
2018-08-31T02:54:17.235Z,98131.94
2018-08-31T02:54:48.864Z,98129.05
2018-08-31T02:55:20.454Z,98124.47
2018-08-31T02:55:52.059Z,98130.10
2018-08-31T02:56:23.666Z,98130.61
2018-08-31T02:56:55.298Z,98124.78
2018-08-31T02:57:26.897Z,98128.20
2018-08-31T02:57:58.502Z,98129.77
2018-08-31T02:58:30.082Z,98132.22
2018-08-31T02:59:01.673Z,98123.92
2018-08-31T02:59:33.279Z,98129.02
2018-08-31T03:00:04.876Z,98128.46
2018-08-31T03:00:36.471Z,98133.38
2018-08-31T03:01:08.127Z,98135.86
2018-08-31T03:01:39.730Z,98129.61
2018-08-31T03:02:11.328Z,98133.09
2018-08-31T03:02:42.933Z,98127.25
2018-08-31T03:03:14.544Z,98135.48
2018-08-31T03:03:46.147Z,98132.72
2018-08-31T03:04:17.726Z,98135.49
2018-08-31T03:04:49.354Z,98134.48
2018-08-31T03:05:20.962Z,98134.30
2018-08-31T03:05:52.538Z,98131.19
2018-08-31T03:06:24.186Z,98137.08
2018-08-31T03:06:55.791Z,98137.81
2018-08-31T03:07:27.382Z,98140.72
2018-08-31T03:07:58.982Z,98143.19
2018-08-31T03:08:30.576Z,98144.41
2018-08-31T03:09:02.178Z,98139.64
2018-08-31T03:09:33.782Z,98140.86
2018-08-31T03:10:05.357Z,98142.08
2018-08-31T03:10:36.958Z,98140.78
2018-08-31T03:11:08.543Z,98140.31
2018-08-31T03:11:40.250Z,98131.36
2018-08-31T03:12:11.780Z,98140.29
2018-08-31T03:12:43.372Z,98147.11
2018-08-31T03:13:14.965Z,98137.25
2018-08-31T03:13:46.557Z,98142.80
2018-08-31T03:14:18.166Z,98137.25
2018-08-31T03:14:49.775Z,98138.95
2018-08-31T03:15:21.354Z,98144.06
2018-08-31T03:15:52.935Z,98139.37
2018-08-31T03:16:24.524Z,98142.34
2018-08-31T03:16:56.164Z,98138.52
2018-08-31T03:17:27.770Z,98137.67
2018-08-31T03:17:59.364Z,98134.68
2018-08-31T03:18:30.956Z,98138.09
2018-08-31T03:19:02.686Z,98139.80
2018-08-31T03:19:34.326Z,98143.22
2018-08-31T03:20:05.911Z,98140.23
2018-08-31T03:20:37.509Z,98143.22
2018-08-31T03:21:09.149Z,98137.69
2018-08-31T03:21:40.729Z,98139.81
2018-08-31T03:22:12.386Z,98144.93
2018-08-31T03:22:43.965Z,98135.17
2018-08-31T03:23:15.566Z,98140.71
2018-08-31T03:23:47.182Z,98135.17
2018-08-31T03:24:18.768Z,98133.91
2018-08-31T03:24:50.367Z,98144.13
2018-08-31T03:25:21.971Z,98142.86
2018-08-31T03:25:53.560Z,98133.91
2018-08-31T03:26:25.178Z,98139.03
2018-08-31T03:26:56.780Z,98133.05
2018-08-31T03:27:28.395Z,98139.04
2018-08-31T03:27:59.979Z,98133.53
2018-08-31T03:28:31.557Z,98136.09
2018-08-31T03:29:03.188Z,98134.81
2018-08-31T03:29:34.784Z,98131.41
2018-08-31T03:30:06.390Z,98133.97
2018-08-31T03:30:37.988Z,98134.45
2018-08-31T03:31:09.590Z,98136.53
2018-08-31T03:31:41.200Z,98130.14
2018-08-31T03:32:12.797Z,98131.42
2018-08-31T03:32:44.384Z,98132.70
2018-08-31T03:33:16.031Z,98134.41
2018-08-31T03:33:47.625Z,98134.84
2018-08-31T03:34:19.232Z,98131.00
2018-08-31T03:34:50.842Z,98131.05
2018-08-31T03:35:22.432Z,98135.30
2018-08-31T03:35:54.024Z,98130.20
2018-08-31T03:36:25.616Z,98132.33
2018-08-31T03:36:57.197Z,98131.05
2018-08-31T03:37:28.799Z,98129.77
2018-08-31T03:38:00.379Z,98128.51
2018-08-31T03:38:32.022Z,98128.51
2018-08-31T03:39:03.621Z,98125.95
2018-08-31T03:39:35.226Z,98121.73
2018-08-31T03:40:06.815Z,98127.23
2018-08-31T03:40:38.419Z,98128.51
2018-08-31T03:41:10.009Z,98122.97
2018-08-31T03:41:41.604Z,98127.70
2018-08-31T03:42:13.202Z,98131.12
2018-08-31T03:42:44.787Z,98122.17
2018-08-31T03:43:16.376Z,98120.95
2018-08-31T03:43:48.023Z,98126.87
2018-08-31T03:44:19.605Z,98126.02
2018-08-31T03:44:51.185Z,98125.17
2018-08-31T03:45:22.773Z,98126.45
2018-08-31T03:45:54.379Z,98123.03
2018-08-31T03:46:26.016Z,98122.17
2018-08-31T03:46:57.623Z,98128.14
2018-08-31T03:47:29.226Z,98126.48
2018-08-31T03:48:00.815Z,98129.06
2018-08-31T03:48:32.403Z,98131.18
2018-08-31T03:49:03.992Z,98132.04
2018-08-31T03:49:35.594Z,98127.78
2018-08-31T03:50:07.194Z,98128.21
2018-08-31T03:50:38.827Z,98128.64
2018-08-31T03:51:10.414Z,98135.04
2018-08-31T03:51:42.000Z,98133.41
2018-08-31T03:52:13.588Z,98133.80
2018-08-31T03:52:45.167Z,98134.66
2018-08-31T03:53:16.752Z,98135.08
2018-08-31T03:53:48.348Z,98131.32
2018-08-31T03:54:19.946Z,98134.68
2018-08-31T03:54:51.554Z,98137.24
2018-08-31T03:55:23.162Z,98131.27
2018-08-31T03:55:54.810Z,98138.52
2018-08-31T03:56:26.414Z,98136.39
2018-08-31T03:56:58.004Z,98138.95
2018-08-31T03:57:29.593Z,98137.72
2018-08-31T03:58:01.193Z,98133.89
2018-08-31T03:58:32.806Z,98136.02
2018-08-31T03:59:04.450Z,98136.02
2018-08-31T03:59:36.054Z,98134.31
2018-08-31T04:00:07.658Z,98133.89
2018-08-31T04:00:39.248Z,98131.39
2018-08-31T04:01:10.836Z,98138.16
2018-08-31T04:01:42.443Z,98133.90
2018-08-31T04:02:14.032Z,98133.05
2018-08-31T04:02:45.686Z,98135.17
2018-08-31T04:03:17.276Z,98131.34
2018-08-31T04:03:48.879Z,98134.75
2018-08-31T04:04:20.482Z,98135.60
2018-08-31T04:04:52.062Z,98136.02
2018-08-31T04:05:23.652Z,98135.61
2018-08-31T04:05:55.255Z,98136.45
2018-08-31T04:06:26.863Z,98130.91
2018-08-31T04:06:58.465Z,98133.52
2018-08-31T04:07:30.060Z,98132.67
2018-08-31T04:08:01.695Z,98131.81
2018-08-31T04:08:33.289Z,98135.23
2018-08-31T04:09:04.888Z,98138.64
2018-08-31T04:09:36.484Z,98136.51
2018-08-31T04:10:08.095Z,98135.66
2018-08-31T04:10:39.674Z,98133.55
2018-08-31T04:11:11.260Z,98133.53
2018-08-31T04:11:42.848Z,98139.92
2018-08-31T04:12:14.450Z,98135.25
2018-08-31T04:12:46.084Z,98136.09
2018-08-31T04:13:17.686Z,98139.08
2018-08-31T04:13:49.333Z,98138.27
2018-08-31T04:14:20.920Z,98134.45
2018-08-31T04:14:52.544Z,98133.59
2018-08-31T04:15:24.144Z,98139.13
2018-08-31T04:15:55.746Z,98133.61
2018-08-31T04:16:27.326Z,98130.67
2018-08-31T04:16:58.902Z,98139.56
2018-08-31T04:17:30.487Z,98138.28
2018-08-31T04:18:02.090Z,98136.16
2018-08-31T04:18:33.710Z,98140.42
2018-08-31T04:19:05.286Z,98140.42
2018-08-31T04:19:36.862Z,98145.97
2018-08-31T04:20:08.498Z,98142.12
2018-08-31T04:20:40.081Z,98138.77
2018-08-31T04:21:11.676Z,98141.70
2018-08-31T04:21:43.258Z,98143.41
2018-08-31T04:22:14.836Z,98143.04
2018-08-31T04:22:46.438Z,98143.42
2018-08-31T04:23:18.036Z,98145.16
2018-08-31T04:23:49.642Z,98149.02
2018-08-31T04:24:21.280Z,98147.72
2018-08-31T04:24:52.882Z,98154.55
2018-08-31T04:25:24.473Z,98149.87
2018-08-31T04:25:56.060Z,98144.31
2018-08-31T04:26:27.669Z,98149.01
2018-08-31T04:26:59.249Z,98153.70
2018-08-31T04:27:30.840Z,98151.57
2018-08-31T04:28:02.468Z,98149.45
2018-08-31T04:28:34.045Z,98150.30
2018-08-31T04:29:05.646Z,98151.58
2018-08-31T04:29:37.251Z,98148.59
2018-08-31T04:30:08.845Z,98150.30
2018-08-31T04:30:40.454Z,98147.38
2018-08-31T04:31:12.062Z,98153.29
2018-08-31T04:31:43.670Z,98150.73
2018-08-31T04:32:15.265Z,98156.28
2018-08-31T04:32:46.856Z,98150.77
2018-08-31T04:33:18.448Z,98145.30
2018-08-31T04:33:50.036Z,98152.91
2018-08-31T04:34:21.632Z,98152.06
2018-08-31T04:34:53.223Z,98149.93
2018-08-31T04:35:24.812Z,98156.32
2018-08-31T04:35:56.405Z,98156.32
2018-08-31T04:36:28.006Z,98159.75
2018-08-31T04:36:59.604Z,98152.06
2018-08-31T04:37:31.232Z,98155.92
2018-08-31T04:38:02.822Z,98155.05
2018-08-31T04:38:34.411Z,98164.42
2018-08-31T04:39:06.023Z,98155.91
2018-08-31T04:39:37.616Z,98157.18
2018-08-31T04:40:09.206Z,98155.06
2018-08-31T04:40:40.796Z,98156.81
2018-08-31T04:41:12.380Z,98159.76
2018-08-31T04:41:43.967Z,98155.06
2018-08-31T04:42:15.614Z,98159.76
2018-08-31T04:42:47.239Z,98149.52
2018-08-31T04:43:18.820Z,98147.01
2018-08-31T04:43:50.412Z,98151.69
2018-08-31T04:44:22.044Z,98154.25
2018-08-31T04:44:53.654Z,98151.30
2018-08-31T04:45:25.259Z,98149.14
2018-08-31T04:45:56.857Z,98152.13
2018-08-31T04:46:28.448Z,98148.30
2018-08-31T04:47:00.050Z,98150.44
2018-08-31T04:47:31.640Z,98155.11
2018-08-31T04:48:03.275Z,98155.11
2018-08-31T04:48:34.870Z,98154.26
2018-08-31T04:49:06.518Z,98152.56
2018-08-31T04:49:38.122Z,98153.84
2018-08-31T04:50:09.711Z,98150.91
2018-08-31T04:50:41.353Z,98152.56
2018-08-31T04:51:12.950Z,98150.01
2018-08-31T04:51:44.544Z,98157.68
2018-08-31T04:52:16.132Z,98152.56
2018-08-31T04:52:47.719Z,98155.55
2018-08-31T04:53:19.366Z,98150.07
2018-08-31T04:53:50.956Z,98148.73
2018-08-31T04:54:22.558Z,98151.72
2018-08-31T04:54:54.148Z,98154.74
2018-08-31T04:55:25.745Z,98155.55
2018-08-31T04:55:57.336Z,98159.39
2018-08-31T04:56:28.924Z,98158.58
2018-08-31T04:57:00.516Z,98158.16
2018-08-31T04:57:32.104Z,98160.71
2018-08-31T04:58:03.681Z,98160.71
2018-08-31T04:58:35.272Z,98159.89
2018-08-31T04:59:06.873Z,98161.57
2018-08-31T04:59:38.459Z,98163.28
2018-08-31T05:00:10.092Z,98166.27
2018-08-31T05:00:41.689Z,98162.84
2018-08-31T05:01:13.284Z,98167.12
2018-08-31T05:01:44.888Z,98166.27
2018-08-31T05:02:16.477Z,98162.02
2018-08-31T05:02:48.109Z,98164.99
2018-08-31T05:03:19.701Z,98158.17
2018-08-31T05:03:51.288Z,98158.17
2018-08-31T05:04:22.880Z,98162.02
2018-08-31T05:04:54.482Z,98156.47
2018-08-31T05:05:26.062Z,98164.99
2018-08-31T05:05:57.657Z,98160.74
2018-08-31T05:06:29.234Z,98158.19
2018-08-31T05:07:00.879Z,98159.46
2018-08-31T05:07:32.481Z,98161.20
2018-08-31T05:08:04.072Z,98159.92
2018-08-31T05:08:35.674Z,98159.50
2018-08-31T05:09:07.274Z,98158.66
2018-08-31T05:09:38.878Z,98165.91
2018-08-31T05:10:10.468Z,98159.08
2018-08-31T05:10:42.064Z,98159.10
2018-08-31T05:11:13.670Z,98162.06
2018-08-31T05:11:45.255Z,98169.31
2018-08-31T05:12:16.858Z,98159.56
2018-08-31T05:12:48.462Z,98163.36
2018-08-31T05:13:20.100Z,98162.07
2018-08-31T05:13:51.682Z,98169.33
2018-08-31T05:14:23.272Z,98164.20
2018-08-31T05:14:54.860Z,98161.66
2018-08-31T05:15:26.461Z,98165.06
2018-08-31T05:15:58.077Z,98168.95
2018-08-31T05:16:29.672Z,98166.77
2018-08-31T05:17:01.274Z,98177.00
2018-08-31T05:17:32.909Z,98168.48
2018-08-31T05:18:04.504Z,98170.22
2018-08-31T05:18:36.093Z,98167.66
2018-08-31T05:19:07.685Z,98175.30
2018-08-31T05:19:39.309Z,98177.00
2018-08-31T05:20:10.916Z,98172.36
2018-08-31T05:20:42.512Z,98172.78
2018-08-31T05:21:14.117Z,98167.69
2018-08-31T05:21:45.693Z,98175.77
2018-08-31T05:22:17.329Z,98172.78
2018-08-31T05:22:48.928Z,98179.61
2018-08-31T05:23:20.574Z,98181.27
2018-08-31T05:23:52.204Z,98179.18
2018-08-31T05:24:23.790Z,98180.45
2018-08-31T05:24:55.381Z,98174.50
2018-08-31T05:25:26.977Z,98177.05
2018-08-31T05:25:58.622Z,98181.73
2018-08-31T05:26:30.268Z,98186.42
2018-08-31T05:27:01.871Z,98176.62
2018-08-31T05:27:33.472Z,98181.30
2018-08-31T05:28:05.051Z,98179.18
2018-08-31T05:28:36.626Z,98179.61
2018-08-31T05:29:08.203Z,98174.92
2018-08-31T05:29:39.801Z,98173.23
2018-08-31T05:30:11.378Z,98180.47
2018-08-31T05:30:42.964Z,98173.28
2018-08-31T05:31:14.571Z,98174.50
2018-08-31T05:31:46.154Z,98173.65
2018-08-31T05:32:17.741Z,98177.91
2018-08-31T05:32:49.328Z,98177.91
2018-08-31T05:33:20.914Z,98176.21
2018-08-31T05:33:52.500Z,98177.91
2018-08-31T05:34:24.102Z,98172.80
2018-08-31T05:34:55.707Z,98182.17
2018-08-31T05:35:27.329Z,98181.75
2018-08-31T05:35:58.930Z,98182.17
2018-08-31T05:36:30.527Z,98173.66
2018-08-31T05:37:02.172Z,98179.20
2018-08-31T05:37:33.801Z,98175.42
2018-08-31T05:38:05.388Z,98180.52
2018-08-31T05:38:36.990Z,98176.69
2018-08-31T05:39:08.593Z,98180.09
2018-08-31T05:39:40.184Z,98174.13
2018-08-31T05:40:11.773Z,98179.23
2018-08-31T05:40:43.374Z,98181.38
2018-08-31T05:41:14.965Z,98183.93
2018-08-31T05:41:46.556Z,98186.06
2018-08-31T05:42:18.189Z,98180.94
2018-08-31T05:42:49.781Z,98186.06
2018-08-31T05:43:21.364Z,98177.11
2018-08-31T05:43:52.956Z,98186.92
2018-08-31T05:44:24.562Z,98189.48
2018-08-31T05:44:56.144Z,98183.94
2018-08-31T05:45:27.737Z,98181.81
2018-08-31T05:45:59.372Z,98183.08
2018-08-31T05:46:30.950Z,98180.11
2018-08-31T05:47:02.540Z,98178.83
2018-08-31T05:47:34.124Z,98177.97
2018-08-31T05:48:05.734Z,98179.25
2018-08-31T05:48:37.330Z,98183.08
2018-08-31T05:49:08.958Z,98184.35
2018-08-31T05:49:40.587Z,98186.45
2018-08-31T05:50:12.166Z,98187.78
2018-08-31T05:50:43.816Z,98182.67
2018-08-31T05:51:15.421Z,98186.50
2018-08-31T05:51:47.022Z,98188.20
2018-08-31T05:52:18.618Z,98186.48
2018-08-31T05:52:50.222Z,98184.80
2018-08-31T05:53:21.880Z,98189.05
2018-08-31T05:53:53.458Z,98192.46
2018-08-31T05:54:25.057Z,98189.91
2018-08-31T05:54:56.713Z,98188.20
2018-08-31T05:55:28.304Z,98197.16
2018-08-31T05:55:59.907Z,98191.61
2018-08-31T05:56:31.509Z,98198.86
2018-08-31T05:57:03.087Z,98190.76
2018-08-31T05:57:34.707Z,98192.88
2018-08-31T05:58:06.296Z,98193.31
2018-08-31T05:58:37.874Z,98190.33
2018-08-31T05:59:09.464Z,98194.17
2018-08-31T05:59:41.072Z,98195.02
2018-08-31T06:00:12.718Z,98193.73
2018-08-31T06:00:44.308Z,98192.47
2018-08-31T06:01:15.955Z,98194.59
2018-08-31T06:01:47.563Z,98190.34
2018-08-31T06:02:19.230Z,98191.19
2018-08-31T06:02:50.774Z,98193.75
2018-08-31T06:03:22.364Z,98193.75
2018-08-31T06:03:53.952Z,98197.17
2018-08-31T06:04:25.544Z,98195.03
2018-08-31T06:04:57.136Z,98202.28
2018-08-31T06:05:28.781Z,98198.06
2018-08-31T06:06:00.415Z,98198.91
2018-08-31T06:06:31.990Z,98193.38
2018-08-31T06:07:03.590Z,98194.18
2018-08-31T06:07:35.180Z,98199.30
2018-08-31T06:08:06.772Z,98199.34
2018-08-31T06:08:38.360Z,98200.19
2018-08-31T06:09:09.942Z,98179.95
2018-08-31T06:09:41.533Z,98198.92
2018-08-31T06:10:13.107Z,98200.63
2018-08-31T06:10:44.740Z,98196.80
2018-08-31T06:11:16.331Z,98201.05